Time;durP1;ratioP1;P1;durP2;ratioP2;P2;SDS_P1;SDS_P2;PMS_P1;PMS_P2;Temp;Humidity;BMP_temperature;BMP_pressure;BME280_temperature;BME280_humidity;BME280_pressure;Samples;Min_cycle;Max_cycle;Signal;HPM_P1;HPM_P2
2022/02/07 00:02:22;;;;;;;32.35;7.47;;;7.00;99.90;;;7.02;74.08;100813.56;5114164;28;20113;-60
2022/02/07 00:04:51;;;;;;;33.35;7.43;;;7.00;99.90;;;7.08;74.29;100818.88;5114026;28;20035;-60
2022/02/07 00:07:19;;;;;;;26.92;7.15;;;7.00;99.90;;;7.20;74.14;100821.63;5114076;28;20055;-59
2022/02/07 00:09:48;;;;;;;31.85;8.70;;;7.10;99.90;;;7.30;74.22;100834.84;5114013;28;20420;-63
2022/02/07 00:12:16;;;;;;;32.42;7.93;;;7.20;99.90;;;7.22;74.94;100838.28;5113873;28;20492;-61
2022/02/07 00:14:45;;;;;;;34.67;7.85;;;7.10;99.90;;;7.27;74.93;100857.63;5113911;27;20043;-60
2022/02/07 00:17:13;;;;;;;29.40;7.45;;;7.20;99.90;;;7.23;74.67;100856.72;5113951;28;20464;-60
2022/02/07 00:19:43;;;;;;;29.90;6.78;;;7.20;99.90;;;7.29;74.37;100856.78;5113757;28;20058;-60
2022/02/07 00:22:12;;;;;;;27.95;6.78;;;7.20;99.90;;;7.30;72.50;100876.06;5113867;28;20118;-60
2022/02/07 00:24:40;;;;;;;20.65;6.45;;;7.20;99.90;;;7.17;71.00;100887.34;5113518;28;20468;-59
2022/02/07 00:27:09;;;;;;;22.80;7.03;;;7.10;99.90;;;7.18;70.23;100908.38;5113544;28;20043;-59
2022/02/07 00:29:37;;;;;;;31.50;7.35;;;7.10;99.90;;;7.17;70.95;100913.63;5113583;28;20071;-59
2022/02/07 00:32:07;;;;;;;30.10;8.30;;;7.20;99.90;;;7.21;71.61;100886.50;5113739;28;20051;-59
2022/02/07 00:34:35;;;;;;;37.38;8.00;;;7.20;99.90;;;7.11;73.19;100874.13;5113591;28;20043;-59
2022/02/07 00:37:05;;;;;;;32.80;7.55;;;7.20;99.90;;;7.35;74.08;100926.97;5113581;27;20122;-59
2022/02/07 00:39:42;;;;;;;31.63;7.13;;;7.30;99.90;;;7.31;72.84;100930.44;5113380;28;20076;-59
2022/02/07 00:42:21;;;;;;;28.73;6.72;;;7.20;99.90;;;7.25;71.56;100922.50;5113459;28;20404;-59
2022/02/07 00:44:50;;;;;;;35.22;7.82;;;7.20;99.90;;;7.07;71.72;100922.28;5113339;28;20051;-59
2022/02/07 00:47:18;;;;;;;19.25;6.57;;;7.00;99.90;;;7.12;71.97;100912.72;5113331;28;20067;-60
2022/02/07 00:49:47;;;;;;;24.55;7.00;;;7.10;99.90;;;7.09;72.08;100947.75;5113269;28;20047;-60
2022/02/07 00:52:18;;;;;;;31.75;7.32;;;7.10;99.90;;;7.14;72.02;100939.94;5146323;27;20035;-59
2022/02/07 00:54:46;;;;;;;33.90;7.93;;;7.10;99.90;;;7.14;72.06;100925.00;5113616;28;20047;-60
2022/02/07 00:57:15;;;;;;;31.63;7.22;;;7.10;99.90;;;7.23;72.21;100969.84;5128932;27;20135;-60
2022/02/07 00:59:44;;;;;;;33.90;7.40;;;7.20;99.90;;;7.44;72.10;100976.16;5128979;27;20454;-60
2022/02/07 01:02:12;;;;;;;35.20;7.38;;;7.30;99.90;;;7.45;72.27;100994.63;5111437;28;20500;-59
2022/02/07 01:04:40;;;;;;;33.13;7.25;;;7.40;99.90;;;7.38;72.06;100992.78;5128798;27;20541;-60
2022/02/07 01:07:10;;;;;;;32.15;7.35;;;7.30;99.90;;;7.34;69.87;100996.25;5146383;27;20489;-59
2022/02/07 01:09:44;;;;;;;23.80;6.57;;;7.30;99.90;;;7.24;67.97;101011.03;5129299;28;20052;-59
2022/02/07 01:12:27;;;;;;;34.80;6.60;;;7.20;99.90;;;6.92;65.64;100943.16;5111843;28;20055;-59
2022/02/07 01:15:20;;;;;;;15.68;5.93;;;7.10;99.90;;;7.28;64.08;101039.16;5112858;28;20044;-60
2022/02/07 01:21:23;;;;;;;24.17;6.57;;;7.30;99.90;;;7.38;64.11;101060.28;5111830;28;20458;-60
2022/02/07 01:46:59;;;;;;;24.73;6.93;;;7.40;99.90;;;7.48;64.47;101184.13;5113790;28;20134;-59
2022/02/07 01:49:45;;;;;;;22.90;6.85;;;7.40;99.90;;;7.58;63.65;101203.53;5111512;28;20070;-59
2022/02/07 01:52:25;;;;;;;28.83;6.80;;;7.50;99.90;;;7.46;62.92;101211.25;5111426;28;20142;-59
2022/02/07 01:55:05;;;;;;;23.73;6.75;;;7.50;99.90;;;7.50;63.20;101226.22;5111508;28;20039;-59
2022/02/07 01:57:34;;;;;;;23.65;6.55;;;7.50;99.90;;;7.60;62.71;101233.41;5111649;28;20101;-59
2022/02/07 02:00:07;;;;;;;19.77;5.72;;;7.50;99.90;;;7.55;61.94;101238.59;5111354;28;20048;-59
2022/02/07 02:02:43;;;;;;;20.40;5.57;;;7.50;99.90;;;7.60;62.33;101246.56;5112669;28;20062;-60
2022/02/07 02:05:21;;;;;;;25.35;7.18;;;7.50;99.90;;;6.61;62.47;101088.19;5111218;28;20091;-59
2022/02/07 02:07:50;;;;;;;18.48;6.50;;;7.50;99.90;;;7.62;62.42;101264.16;5111408;28;20052;-59
2022/02/07 02:10:20;;;;;;;27.08;6.75;;;7.50;99.90;;;7.62;63.25;101276.41;5128389;28;20058;-60
2022/02/07 02:12:58;;;;;;;30.23;6.85;;;7.50;99.90;;;7.66;64.19;101273.88;5128813;27;20048;-59
2022/02/07 02:15:37;;;;;;;29.48;6.80;;;7.60;99.90;;;7.58;65.52;101280.75;5114843;28;20138;-60
2022/02/07 02:18:48;;;;;;;29.98;6.70;;;7.50;99.90;;;7.49;66.27;101285.00;5115064;28;20043;-60
2022/02/07 02:38:05;;;;;;;28.55;7.07;;;7.30;99.90;;;7.43;66.91;101330.56;5052743;28;20113;-60
2022/02/07 02:46:21;;;;;;;31.08;7.60;;;7.40;99.90;;;7.46;65.89;101359.53;5114428;28;20138;-59
2022/02/07 02:48:59;;;;;;;33.97;7.65;;;7.40;99.90;;;7.44;64.98;101356.00;5114578;28;20066;-59
2022/02/07 02:51:29;;;;;;;23.13;7.07;;;7.40;99.90;;;7.36;64.27;101361.97;5114212;28;20122;-59
2022/02/07 02:53:58;;;;;;;22.88;6.43;;;7.30;99.90;;;7.38;63.20;101369.03;5131697;27;20411;-60
2022/02/07 02:56:29;;;;;;;19.38;6.18;;;7.30;99.90;;;7.40;62.85;101353.28;5113856;28;20082;-60
2022/02/07 02:58:58;;;;;;;25.10;7.40;;;7.30;99.90;;;7.46;63.35;101413.91;5148491;27;20439;-62
2022/02/07 03:01:32;;;;;;;25.48;6.90;;;7.40;99.90;;;7.47;63.39;101384.97;5131174;27;20047;-60
2022/02/07 03:04:07;;;;;;;27.33;6.78;;;7.40;99.90;;;7.30;63.63;101336.44;5114166;28;20071;-59
2022/02/07 03:06:38;;;;;;;28.52;7.15;;;7.50;99.90;;;7.53;64.44;101402.63;5115405;28;20031;-59
2022/02/07 03:09:13;;;;;;;;;;;7.40;99.90;;;7.47;64.16;101398.13;5115699;28;20485;-59
2022/02/07 03:11:44;;;;;;;24.33;6.97;;;7.40;99.90;;;7.44;64.35;101406.00;5131028;27;19924;-60
2022/02/07 03:14:22;;;;;;;26.88;7.47;;;7.40;99.90;;;7.34;64.92;101405.81;5113711;28;20044;-60
2022/02/07 03:16:54;;;;;;;30.40;7.18;;;7.40;99.90;;;7.29;65.19;101414.53;5113874;28;20051;-59
2022/02/07 03:19:23;;;;;;;27.08;7.60;;;7.30;99.90;;;7.47;64.95;101428.84;5115409;28;20126;-59
2022/02/07 03:21:56;;;;;;;22.08;6.03;;;7.40;99.90;;;7.44;65.46;101540.22;5113683;28;20043;-60
2022/02/07 03:24:25;;;;;;;35.72;7.65;;;7.40;99.90;;;7.34;65.45;101430.38;5130280;27;20508;-59
2022/02/07 03:27:15;;;;;;;21.60;6.20;;;7.40;99.90;;;7.25;65.29;101438.13;5114706;27;20058;-59
2022/02/07 03:29:50;;;;;;;27.80;7.45;;;7.40;99.90;;;7.18;64.83;101436.25;5130830;27;20513;-59
2022/02/07 03:32:22;;;;;;;32.15;7.75;;;7.30;99.90;;;7.57;64.67;101479.03;5130611;27;20477;-59
2022/02/07 03:35:00;;;;;;;24.63;6.90;;;7.40;99.90;;;7.39;64.84;101489.25;5113305;28;20048;-59
2022/02/07 03:37:29;;;;;;;26.95;6.45;;;7.40;99.90;;;7.49;64.93;101492.94;5147748;27;20078;-59
2022/02/07 03:39:59;;;;;;;29.35;6.18;;;7.40;99.90;;;7.49;65.09;101514.84;5113401;28;20410;-59
2022/02/07 03:42:29;;;;;;;24.08;6.55;;;7.40;99.90;;;7.42;65.07;101507.72;5113262;28;20105;-59
2022/02/07 03:45:03;;;;;;;26.52;7.00;;;7.40;99.90;;;7.59;64.71;101521.19;5130415;27;20413;-59
2022/02/07 03:47:37;;;;;;;30.58;7.78;;;7.50;99.90;;;7.48;65.35;101530.63;5130484;27;20464;-59
2022/02/07 03:50:07;;;;;;;31.50;7.25;;;7.50;99.90;;;7.60;65.32;101559.81;5113637;28;20427;-59
2022/02/07 03:52:43;;;;;;;25.90;6.88;;;7.50;99.90;;;7.65;66.12;101550.25;5113068;28;20051;-60
2022/02/07 03:55:12;;;;;;;22.40;6.53;;;7.50;99.90;;;7.60;65.97;101546.66;5130107;27;20419;-60
2022/02/07 03:57:43;;;;;;;26.33;6.60;;;7.50;99.90;;;7.09;66.54;101525.47;5129951;27;20396;-59
2022/02/07 04:00:15;;;;;;;30.65;7.32;;;7.40;99.90;;;7.50;66.57;101569.28;5114338;28;20050;-60
2022/02/07 04:02:48;;;;;;;25.20;7.30;;;7.40;99.90;;;5.71;66.84;101240.59;5114289;28;20050;-59
2022/02/07 04:05:43;;;;;;;31.02;7.97;;;7.50;99.90;;;7.56;67.10;101565.88;5112830;28;20044;-59
2022/02/07 04:08:17;;;;;;;30.63;7.65;;;7.50;99.90;;;7.53;66.65;101581.63;5129809;27;20051;-59
2022/02/07 04:11:00;;;;;;;29.88;7.00;;;7.50;99.90;;;7.46;66.80;101584.97;5112625;28;20075;-59
2022/02/07 04:13:33;;;;;;;33.78;7.22;;;7.40;99.90;;;7.41;67.33;101577.00;5112809;28;20097;-60
2022/02/07 04:16:07;;;;;;;28.88;6.57;;;7.50;99.90;;;7.66;67.11;101600.31;5129635;27;20090;-60
2022/02/07 04:18:51;;;;;;;29.73;7.40;;;7.50;99.90;;;7.67;67.29;101595.91;5112522;28;20096;-59
2022/02/07 04:21:21;;;;;;;35.97;8.40;;;7.60;99.90;;;7.64;67.76;101617.81;5112597;28;20405;-59
2022/02/07 04:23:50;;;;;;;38.53;8.50;;;7.60;99.90;;;7.65;67.51;101608.16;5129995;27;20095;-59
2022/02/07 04:26:39;;;;;;;20.65;7.30;;;7.60;99.90;;;7.66;68.14;101629.28;5113788;28;20408;-59
2022/02/07 04:29:09;;;;;;;28.58;7.95;;;7.60;99.90;;;7.56;68.06;101602.72;5112204;28;20059;-59
2022/02/07 04:31:41;;;;;;;26.40;7.00;;;7.70;99.90;;;7.62;68.65;101619.53;5129629;27;20044;-59
2022/02/07 04:34:14;;;;;;;33.55;7.45;;;7.60;99.90;;;7.53;69.50;101647.44;5129546;27;20082;-59
2022/02/07 04:36:44;;;;;;;40.15;8.93;;;7.50;99.90;;;7.05;69.56;101560.47;5111424;28;20039;-59
2022/02/07 04:39:13;;;;;;;25.27;7.28;;;7.50;99.90;;;7.02;69.35;101528.84;5129413;27;20043;-59
2022/02/07 04:41:43;;;;;;;32.33;8.15;;;7.60;99.90;;;7.67;70.15;101667.91;5129201;27;20044;-59
2022/02/07 04:44:22;;;;;;;22.38;6.55;;;7.60;99.90;;;7.74;70.36;101661.88;5112252;28;20039;-59
2022/02/07 04:47:06;;;;;;;41.05;7.95;;;7.70;99.90;;;7.76;70.83;101683.00;5112229;28;20073;-59
2022/02/07 04:50:02;;;;;;;40.63;7.53;;;7.70;99.90;;;7.62;70.70;101671.28;5112100;28;20043;-60
2022/02/07 04:52:56;;;;;;;28.42;7.70;;;7.70;99.90;;;7.75;70.96;101697.00;5112014;28;20051;-59
2022/02/07 04:55:35;;;;;;;29.95;7.90;;;7.70;99.90;;;7.77;71.17;101701.47;5111819;28;20044;-59
2022/02/07 04:58:38;;;;;;;34.58;7.70;;;7.70;99.90;;;7.63;71.10;101705.53;5104170;27;1379322;-60
2022/02/07 05:01:12;;;;;;;33.70;7.22;;;7.60;99.90;;;7.51;70.71;101671.06;5112757;28;20055;-60
2022/02/07 05:03:47;;;;;;;31.13;7.90;;;7.60;99.90;;;7.71;71.73;101724.13;5112554;28;20097;-60
2022/02/07 05:14:46;;;;;;;39.50;7.30;;;7.70;99.90;;;7.72;72.23;101742.63;5112260;28;20138;-60
2022/02/07 05:17:19;;;;;;;32.22;7.28;;;7.80;99.90;;;7.77;72.54;101761.13;5112158;28;20051;-60
2022/02/07 05:20:00;;;;;;;28.58;7.40;;;7.70;99.90;;;7.73;73.26;101772.44;5130731;28;20511;-60
2022/02/07 05:22:41;;;;;;;28.40;7.72;;;7.60;99.90;;;7.73;73.50;101775.97;5130693;28;20047;-60
2022/02/07 05:25:28;;;;;;;38.20;7.85;;;7.60;99.90;;;7.70;73.55;101770.66;5130545;28;20059;-60
2022/02/07 05:28:28;;;;;;;34.33;7.20;;;7.70;99.90;;;7.85;73.43;101797.31;5112213;28;20126;-60
2022/02/07 05:31:27;;;;;;;28.08;7.90;;;7.80;99.90;;;7.75;73.62;101790.06;5094875;28;20293;-60
2022/02/07 05:34:23;;;;;;;33.38;7.13;;;7.70;99.90;;;7.73;73.82;101799.69;5111898;28;20044;-60
2022/02/07 05:37:16;;;;;;;37.70;8.07;;;7.70;99.90;;;7.64;73.57;101802.13;5130390;28;20138;-60
2022/02/07 05:40:06;;;;;;;44.78;7.85;;;7.60;99.90;;;7.58;74.25;101799.34;5111702;28;20051;-60
2022/02/07 05:42:50;;;;;;;31.73;7.47;;;7.50;99.90;;;7.73;73.95;101819.84;5111823;28;20047;-60
2022/02/07 05:45:41;;;;;;;33.45;7.90;;;7.60;99.90;;;7.61;74.36;101817.81;5128491;28;20048;-60
2022/02/07 05:48:29;;;;;;;27.35;7.47;;;7.50;99.90;;;7.67;74.02;101812.69;5130241;28;20062;-60
2022/02/07 05:51:08;;;;;;;33.28;7.65;;;7.60;99.90;;;7.56;74.11;101811.59;5111872;28;20051;-60
2022/02/07 05:53:44;;;;;;;41.85;8.60;;;7.50;99.90;;;7.54;74.63;101810.66;5111701;28;20077;-60
2022/02/07 05:56:36;;;;;;;26.90;8.25;;;7.50;99.90;;;7.71;74.70;101829.47;5120911;28;20130;-60
2022/02/07 05:59:27;;;;;;;29.50;7.32;;;7.60;99.90;;;7.67;74.55;101827.59;5129922;28;20055;-60
2022/02/07 06:02:18;;;;;;;33.88;7.57;;;7.60;99.90;;;7.45;74.78;101810.47;5111576;28;20503;-60
2022/02/07 06:04:51;;;;;;;35.25;8.15;;;7.50;99.90;;;7.51;75.10;101809.72;5111408;28;20047;-60
2022/02/07 06:07:19;;;;;;;34.60;9.10;;;7.60;99.90;;;7.69;75.13;101839.97;5129561;28;20039;-60
2022/02/07 06:09:51;;;;;;;37.85;8.30;;;7.70;99.90;;;7.75;75.59;101853.28;5097474;28;20051;-60
2022/02/07 06:12:20;;;;;;;40.33;8.65;;;7.60;99.90;;;7.83;75.82;101846.44;5115848;28;20054;-60
2022/02/07 06:14:49;;;;;;;41.50;9.05;;;7.70;99.90;;;7.98;75.40;101862.56;5115808;28;20042;-60
2022/02/07 06:17:17;;;;;;;36.17;8.27;;;7.80;99.90;;;7.97;75.39;101855.53;5097465;28;20043;-60
2022/02/07 06:19:46;;;;;;;37.45;9.02;;;7.90;99.90;;;7.82;75.62;101857.81;5097339;28;20051;-60
2022/02/07 06:22:16;;;;;;;34.33;8.13;;;7.80;99.90;;;7.99;75.24;101861.69;5097643;28;20429;-60
2022/02/07 06:24:46;;;;;;;36.10;7.13;;;7.90;99.90;;;8.00;75.37;101870.50;5097479;28;20050;-60
2022/02/07 06:27:17;;;;;;;38.45;8.10;;;7.90;99.90;;;7.98;75.25;101861.69;5097322;28;20138;-60
2022/02/07 06:29:45;;;;;;;43.25;7.68;;;7.90;99.90;;;7.92;75.08;101875.59;5115534;28;20123;-60
2022/02/07 06:32:14;;;;;;;45.38;9.18;;;7.90;99.90;;;7.88;75.17;101888.66;5115464;28;20393;-60
2022/02/07 06:34:43;;;;;;;35.20;7.47;;;7.80;99.90;;;7.96;74.74;101906.44;5097134;28;20564;-60
2022/02/07 06:37:17;;;;;;;35.70;7.22;;;7.80;99.90;;;7.95;74.91;101915.19;5097388;28;20048;-60
2022/02/07 06:39:46;;;;;;;29.45;7.05;;;7.80;99.90;;;8.00;74.63;101928.47;5115427;28;20036;-60
2022/02/07 06:42:15;;;;;;;36.20;8.35;;;7.80;99.90;;;7.71;74.24;101876.84;5097019;28;20044;-60
2022/02/07 06:44:45;;;;;;;33.00;6.82;;;7.90;99.90;;;8.05;74.12;101937.38;5096828;28;20047;-60
2022/02/07 06:47:15;;;;;;;37.75;8.52;;;7.90;99.90;;;8.06;73.97;101954.94;5097173;28;20059;-60
2022/02/07 06:49:43;;;;;;;37.25;7.38;;;7.90;99.90;;;8.21;73.72;101950.91;5096884;28;20052;-60
2022/02/07 06:52:12;;;;;;;30.67;6.93;;;8.00;99.90;;;8.04;73.59;101947.03;5096741;28;20096;-60
2022/02/07 06:54:45;;;;;;;29.98;7.82;;;8.00;99.90;;;8.06;74.50;101950.56;5114969;28;20031;-60
2022/02/07 06:57:15;;;;;;;31.92;7.78;;;8.00;99.90;;;7.68;75.46;101934.72;5096322;28;20059;-60
2022/02/07 06:59:47;;;;;;;36.90;7.78;;;7.80;99.90;;;6.92;75.61;101840.72;5096804;28;20140;-60
2022/02/07 07:02:24;;;;;;;45.42;8.77;;;7.80;99.90;;;8.03;75.89;102004.94;5096735;28;20071;-60
2022/02/07 07:04:56;;;;;;;27.65;7.43;;;7.80;99.90;;;7.89;75.50;101986.19;5096494;28;20040;-60
2022/02/07 07:07:25;;;;;;;38.45;8.43;;;7.90;99.90;;;7.93;75.49;102002.94;5096612;28;20078;-60
2022/02/07 07:09:55;;;;;;;47.65;8.90;;;7.80;99.90;;;7.97;76.36;102010.97;5096601;28;20036;-60
2022/02/07 07:12:24;;;;;;;33.10;6.88;;;7.80;99.90;;;7.88;75.94;102010.72;5096581;28;20549;-60
2022/02/07 07:15:06;;;;;;;31.05;8.13;;;7.80;99.90;;;7.87;75.91;101997.53;5096492;28;20070;-60
2022/02/07 07:17:35;;;;;;;32.63;7.22;;;7.80;99.90;;;7.89;75.54;102001.09;5096296;28;20097;-60
2022/02/07 07:20:06;;;;;;;35.20;7.30;;;7.80;99.90;;;7.93;75.37;102010.84;5095049;28;20069;-60
2022/02/07 07:22:37;;;;;;;38.88;7.85;;;7.80;99.90;;;7.95;75.04;102024.94;5096444;28;20165;-60
2022/02/07 07:25:16;;;;;;;33.03;8.10;;;7.80;99.90;;;8.00;74.95;102028.56;5096225;28;20512;-60
2022/02/07 07:27:58;;;;;;;39.20;8.20;;;7.80;99.90;;;8.05;75.25;102033.09;5096138;28;20052;-60
2022/02/07 07:30:33;;;;;;;34.22;7.80;;;7.90;99.90;;;8.16;74.97;102046.53;5096135;28;20408;-60
2022/02/07 07:33:06;;;;;;;37.45;9.02;;;8.00;99.90;;;6.33;75.81;101762.00;5114570;28;20047;-60
2022/02/07 07:35:35;;;;;;;37.88;7.97;;;8.00;99.90;;;7.31;75.79;101956.59;5096130;28;20469;-60
2022/02/07 07:38:06;;;;;;;39.25;6.97;;;7.90;99.90;;;7.84;76.38;102072.06;5095871;28;20040;-60
2022/02/07 07:40:36;;;;;;;37.22;8.05;;;7.80;99.90;;;7.94;76.07;102082.00;5095794;28;20057;-60
2022/02/07 07:43:09;;;;;;;34.47;7.78;;;7.80;99.90;;;7.92;75.90;102083.69;5095510;28;20065;-61
2022/02/07 07:46:01;;;;;;;33.75;7.57;;;7.80;99.90;;;8.11;76.21;102079.78;5095630;28;20044;-60
2022/02/07 07:48:47;;;;;;;32.70;7.57;;;7.90;99.90;;;8.07;76.29;102104.28;5096059;28;20134;-60
2022/02/07 07:51:34;;;;;;;37.10;8.45;;;7.90;99.90;;;7.94;76.15;102075.84;5095496;28;20054;-62
2022/02/07 07:54:27;;;;;;;35.95;7.07;;;8.00;99.90;;;8.03;75.62;102124.38;5095569;28;20493;-61
2022/02/07 08:02:48;;;;;;;36.35;8.52;;;7.80;99.90;;;7.93;79.27;102139.94;5093412;28;20127;-61
2022/02/07 08:05:36;;;;;;;42.25;8.30;;;7.80;99.90;;;7.86;80.09;102135.31;5092053;28;20119;-60
2022/02/07 08:08:17;;;;;;;44.83;7.28;;;7.80;99.90;;;7.89;80.19;102136.31;5091663;28;20077;-61
2022/02/07 08:10:53;;;;;;;40.75;7.80;;;7.80;99.90;;;7.80;80.44;102149.22;5091725;28;20511;-61
2022/02/07 08:13:27;;;;;;;31.52;7.20;;;7.70;99.90;;;8.05;80.17;102159.56;5091873;28;20512;-65
2022/02/07 08:15:57;;;;;;;40.00;7.95;;;7.90;99.90;;;7.87;79.92;102145.03;5091881;28;20070;-62
2022/02/07 08:18:28;;;;;;;32.83;7.82;;;7.90;99.90;;;8.09;80.37;102174.59;5091572;28;20044;-62
2022/02/07 08:20:56;;;;;;;36.38;7.25;;;7.90;99.90;;;7.91;80.86;102167.97;5091992;28;20166;-63
2022/02/07 08:23:27;;;;;;;35.38;7.72;;;7.80;99.90;;;8.00;81.64;102177.00;5093171;28;20465;-61
2022/02/07 08:25:57;;;;;;;34.85;7.65;;;7.80;99.90;;;7.98;81.95;102180.44;5092920;28;20439;-61
2022/02/07 08:28:46;;;;;;;39.20;7.88;;;7.80;99.90;;;7.08;82.43;102041.91;5092830;28;20048;-60
2022/02/07 08:31:17;;;;;;;38.13;8.57;;;7.80;99.90;;;7.79;83.22;102191.31;5092610;28;20048;-61
2022/02/07 08:33:46;;;;;;;43.05;7.95;;;7.70;99.90;;;7.71;83.52;102188.47;5092979;28;20417;-61
2022/02/07 08:36:16;;;;;;;38.97;7.90;;;7.60;99.90;;;7.64;83.20;102157.56;5091653;28;20056;-60
2022/02/07 08:38:45;;;;;;;40.08;7.43;;;7.70;99.90;;;7.79;83.16;102173.78;5092681;28;20055;-60
2022/02/07 08:41:14;;;;;;;33.63;7.05;;;7.80;99.90;;;7.79;82.62;102176.44;5092664;28;20698;-60
2022/02/07 08:43:42;;;;;;;28.33;7.28;;;7.70;99.90;;;7.72;82.63;102202.56;5091212;28;20135;-61
2022/02/07 08:46:12;;;;;;;38.78;7.53;;;7.70;99.90;;;7.74;83.68;102203.50;5092875;28;20064;-61
2022/02/07 08:48:42;;;;;;;39.15;8.52;;;7.60;99.90;;;7.67;84.04;102210.31;5091566;28;20047;-61
2022/02/07 08:51:11;;;;;;;24.65;6.82;;;7.60;99.90;;;7.51;84.40;102213.34;5092572;28;20050;-61
2022/02/07 08:53:42;;;;;;;35.42;7.28;;;7.50;99.90;;;7.67;84.50;102233.09;5092528;28;20040;-61
2022/02/07 08:56:16;;;;;;;37.97;7.63;;;7.50;99.90;;;7.65;84.12;102246.22;5092563;28;20044;-61
2022/02/07 08:58:47;;;;;;;32.60;7.60;;;7.50;99.90;;;7.63;84.14;102250.56;5112043;28;20056;-61
2022/02/07 09:01:22;;;;;;;47.38;8.32;;;7.60;99.90;;;7.58;84.01;102235.47;5112892;28;20122;-61
2022/02/07 09:04:29;;;;;;;34.38;7.40;;;7.60;99.90;;;7.63;84.60;102283.88;5094204;28;20067;-62
2022/02/07 09:07:03;;;;;;;32.67;7.25;;;7.50;99.90;;;7.53;84.10;102245.00;5112974;28;20046;-61
2022/02/07 09:09:31;;;;;;;39.42;7.43;;;7.60;99.90;;;6.83;84.18;102139.34;5112786;28;20112;-63
2022/02/07 09:12:00;;;;;;;42.63;8.55;;;7.50;99.90;;;7.54;84.20;102302.06;5112765;28;20044;-61
2022/02/07 09:14:32;;;;;;;38.58;7.75;;;7.50;99.90;;;7.59;84.52;102292.56;5112569;28;20050;-62
2022/02/07 09:17:02;;;;;;;28.38;6.72;;;7.50;99.90;;;7.63;83.94;102295.31;5112586;28;20063;-61
2022/02/07 09:19:31;;;;;;;33.33;7.38;;;7.50;99.90;;;7.72;83.91;102306.16;5112732;28;20063;-61
2022/02/07 09:22:00;;;;;;;34.72;7.13;;;7.60;99.90;;;7.68;83.44;102299.00;5112739;28;20156;-62
2022/02/07 09:24:29;;;;;;;37.83;7.82;;;7.60;99.90;;;7.62;83.84;102305.81;5112758;28;20066;-62
2022/02/07 09:26:58;;;;;;;28.25;6.93;;;7.50;99.90;;;7.52;84.11;102304.66;5112715;28;20061;-61
2022/02/07 09:29:26;;;;;;;31.90;6.95;;;7.50;99.90;;;7.23;83.70;102258.09;5112728;28;20077;-61
2022/02/07 09:31:55;;;;;;;30.00;7.50;;;7.40;99.90;;;7.42;83.89;102306.94;5112662;28;20047;-62
2022/02/07 09:34:25;;;;;;;28.42;7.53;;;7.40;99.90;;;7.41;83.79;102303.44;5112529;28;20048;-61
2022/02/07 09:36:53;;;;;;;32.05;6.43;;;7.40;99.90;;;7.48;83.69;102323.81;5112665;28;20036;-62
2022/02/07 09:39:29;;;;;;;38.40;7.07;;;7.40;99.90;;;7.58;83.26;102322.38;5112362;28;20067;-62
2022/02/07 09:42:02;;;;;;;27.67;7.60;;;7.50;99.90;;;7.41;83.68;102327.13;5112415;28;20089;-62
2022/02/07 09:44:41;;;;;;;33.58;8.25;;;7.50;99.90;;;7.57;83.07;102347.78;5115371;28;20048;-61
2022/02/07 09:47:11;;;;;;;35.83;7.68;;;7.50;99.90;;;7.61;82.95;102354.03;5116503;28;20438;-61
2022/02/07 09:49:41;;;;;;;48.13;7.38;;;7.50;99.90;;;6.98;82.59;102258.16;5116369;28;20114;-61
2022/02/07 09:52:10;;;;;;;31.70;6.70;;;7.40;99.90;;;7.51;81.80;102370.44;5098095;28;20043;-61
2022/02/07 09:54:42;;;;;;;28.83;6.97;;;7.50;99.90;;;7.44;82.04;102357.88;5116280;28;20035;-61
2022/02/07 09:57:10;;;;;;;35.72;7.05;;;7.50;99.90;;;7.52;81.83;102390.63;5116009;28;20051;-61
2022/02/07 09:59:39;;;;;;;26.65;6.97;;;7.50;99.90;;;7.57;81.34;102395.19;5116093;28;20047;-61
2022/02/07 10:02:24;;;;;;;31.73;6.32;;;7.50;99.90;;;7.67;81.22;102410.44;5116373;28;20055;-61
2022/02/07 10:04:57;;;;;;;31.95;7.85;;;7.50;99.90;;;7.62;80.72;102363.75;5097744;28;20489;-61
2022/02/07 10:07:35;;;;;;;41.58;7.00;;;7.70;99.90;;;7.77;79.37;102412.53;5116126;28;20047;-61
2022/02/07 10:10:21;;;;;;;25.77;6.88;;;7.70;99.90;;;7.87;79.19;102411.97;5115966;28;20489;-61
2022/02/07 10:15:43;;;;;;;25.08;6.95;;;7.80;99.90;;;8.11;78.77;102411.81;5114328;28;20059;-62
2022/02/07 10:18:18;;;;;;;24.23;6.30;;;8.00;99.90;;;8.27;78.59;102421.09;5115896;28;20039;-62
2022/02/07 10:38:09;;;;;;;32.85;7.30;;;7.90;99.90;;;8.35;77.83;102438.94;5130769;28;20047;-60
2022/02/07 10:40:43;;;;;;;19.00;5.90;;;8.20;99.90;;;8.61;76.98;102459.09;5130640;28;20442;-60
2022/02/07 10:43:46;;;;;;;26.52;6.90;;;8.50;99.90;;;7.84;75.67;102293.31;5130514;28;20120;-60
2022/02/07 10:46:17;;;;;;;24.88;6.57;;;8.70;99.90;;;8.67;75.17;102469.78;5130573;28;20096;-60
2022/02/07 10:48:51;;;;;;;28.00;7.28;;;8.60;99.90;;;8.91;75.58;102477.50;5130489;28;20043;-60
2022/02/07 10:51:22;;;;;;;16.73;6.18;;;8.70;99.90;;;9.00;74.99;102464.59;5130510;28;20517;-60
2022/02/07 10:53:53;;;;;;;27.38;6.53;;;8.90;99.90;;;9.15;74.54;102475.56;5130774;28;20059;-61
2022/02/07 10:56:26;;;;;;;24.88;6.00;;;9.00;99.90;;;8.94;73.53;102456.50;5130435;28;20808;-61
2022/02/07 10:58:55;;;;;;;25.58;7.07;;;8.90;99.90;;;8.80;73.53;102456.13;5130695;28;20089;-61
2022/02/07 11:01:36;;;;;;;22.38;6.70;;;8.80;99.90;;;9.02;72.94;102473.41;5130108;28;20481;-61
2022/02/07 11:04:10;;;;;;;;;;;8.90;99.90;;;9.31;73.48;102451.34;5130714;28;20401;-61
2022/02/07 11:06:39;;;;;;;24.33;6.50;;;9.20;99.90;;;9.39;71.69;102470.91;5130215;28;19919;-62
2022/02/07 11:09:16;;;;;;;22.83;6.25;;;9.30;99.90;;;9.54;71.29;102460.72;5130025;28;20500;-62
2022/02/07 11:14:47;;;;;;;28.33;6.10;;;9.70;99.90;;;10.47;70.87;102475.31;5130079;28;20445;-63
2022/02/07 11:17:37;;;;;;;19.23;5.72;;;10.20;99.90;;;10.70;69.05;102470.53;5130417;28;20050;-64
2022/02/07 11:20:34;;;;;;;21.65;6.20;;;10.60;99.90;;;10.64;67.37;102447.50;5111334;28;20067;-63
2022/02/07 11:23:18;;;;;;;22.60;6.10;;;10.80;99.90;;;10.81;66.85;102484.88;5129696;28;20488;-63
2022/02/07 11:25:50;;;;;;;19.58;5.35;;;10.70;99.90;;;10.83;67.10;102469.91;5129886;28;20039;-63
2022/02/07 11:28:25;;;;;;;28.08;5.82;;;10.70;99.90;;;11.03;66.95;102492.41;5129990;28;20137;-62
2022/02/07 11:30:57;;;;;;;18.55;5.72;;;10.80;99.90;;;10.76;65.56;102454.78;5130162;28;20126;-63
2022/02/07 11:33:38;;;;;;;23.60;6.10;;;10.80;99.90;;;10.73;66.20;102466.19;5125749;28;20047;-63
2022/02/07 11:36:13;;;;;;;19.48;5.25;;;10.70;99.90;;;10.17;66.21;102456.16;5115751;28;20046;-63
2022/02/07 11:39:10;;;;;;;20.73;5.82;;;10.10;99.90;;;10.09;67.27;102459.44;5115764;28;20047;-63
2022/02/07 11:42:12;;;;;;;19.58;6.20;;;9.90;99.90;;;9.83;68.19;102458.84;5115552;28;20089;-62
2022/02/07 11:45:24;;;;;;;21.50;5.88;;;9.80;99.90;;;9.91;67.80;102447.56;5097459;28;20623;-62
2022/02/07 11:48:09;;;;;;;;;;;9.80;99.90;;;9.62;68.25;102432.75;5098093;28;20514;-62
2022/02/07 11:50:44;;;;;;;18.77;5.75;;;9.70;99.90;;;9.68;68.23;102432.91;5097017;28;19923;-62
2022/02/07 11:53:16;;;;;;;24.58;6.97;;;9.70;99.90;;;10.23;68.31;102444.81;5115432;28;20048;-64
2022/02/07 11:55:55;;;;;;;23.98;6.47;;;10.10;99.90;;;10.25;67.06;102456.31;5096934;28;20052;-62
2022/02/07 11:58:27;;;;;;;17.52;6.13;;;10.20;99.90;;;10.27;67.22;102463.44;5115839;28;20050;-63
2022/02/07 12:00:57;;;;;;;13.68;5.60;;;10.20;99.90;;;10.37;65.85;102469.81;5115076;28;20094;-63
2022/02/07 12:03:26;;;;;;;26.83;6.25;;;10.20;99.90;;;10.23;65.04;102435.13;5115325;28;20126;-63
2022/02/07 12:05:58;;;;;;;16.65;5.45;;;10.30;99.90;;;10.49;65.34;102449.78;5115085;28;20040;-62
2022/02/07 12:08:32;;;;;;;20.85;6.63;;;10.30;99.90;;;10.08;66.62;102463.84;5115040;28;20445;-57
2022/02/07 12:11:11;;;;;;;18.67;6.28;;;10.10;99.90;;;10.36;66.93;102468.00;5096916;28;20059;-57
2022/02/07 12:13:42;;;;;;;21.10;5.82;;;10.20;99.90;;;10.65;66.78;102477.47;5096655;28;20338;-56
2022/02/07 12:16:16;;;;;;;18.30;6.03;;;10.40;99.90;;;11.12;65.79;102497.88;5114887;28;20043;-56
2022/02/07 12:18:55;;;;;;;21.08;6.30;;;10.90;99.90;;;11.48;64.25;102490.59;5115247;28;20104;-56